Time;durP1;ratioP1;P1;durP2;ratioP2;P2;SDS_P1;SDS_P2;PMS_P1;PMS_P2;Temp;Humidity;BMP_temperature;BMP_pressure;BME280_temperature;BME280_humidity;BME280_pressure;Samples;Min_cycle;Max_cycle;Signal;HPM_P1;HPM_P2
2023/02/13 00:02:01;;;;;;;2.70;1.30;;;;;;;;;;6190962;28;20435;-77
2023/02/13 00:05:16;;;;;;;3.87;1.57;;;;;;;;;;6189548;28;20590;-78
2023/02/13 00:08:21;;;;;;;3.50;1.90;;;;;;;;;;6190440;28;20295;-78
2023/02/13 00:11:28;;;;;;;1.60;1.50;;;;;;;;;;6203667;28;20301;-77
2023/02/13 00:14:36;;;;;;;2.33;1.50;;;;;;;;;;6189587;28;20308;-78
2023/02/13 00:17:41;;;;;;;1.20;1.20;;;;;;;;;;6188433;28;20280;-76
2023/02/13 00:20:58;;;;;;;1.60;1.50;;;;;;;;;;6190228;28;20298;-77
2023/02/13 00:24:04;;;;;;;1.57;1.47;;;;;;;;;;6204471;28;20304;-77
2023/02/13 00:27:11;;;;;;;1.53;1.47;;;;;;;;;;6188939;28;20292;-76
2023/02/13 00:30:17;;;;;;;2.53;1.43;;;;;;;;;;6188505;28;20300;-78
2023/02/13 00:33:25;;;;;;;1.30;1.20;;;;;;;;;;6188097;28;20301;-77
2023/02/13 00:36:31;;;;;;;2.97;1.50;;;;;;;;;;6188438;28;20305;-76
2023/02/13 00:39:36;;;;;;;1.20;1.20;;;;;;;;;;6189829;28;20300;-78
2023/02/13 00:42:42;;;;;;;1.47;1.37;;;;;;;;;;6189279;28;20578;-76
2023/02/13 00:45:48;;;;;;;1.43;1.33;;;;;;;;;;6189835;28;20292;-78
2023/02/13 00:48:53;;;;;;;1.63;1.53;;;;;;;;;;6188713;28;20478;-78
2023/02/13 00:51:58;;;;;;;1.63;1.40;;;;;;;;;;6188209;28;20289;-77
2023/02/13 00:55:03;;;;;;;1.73;1.23;;;;;;;;;;6204026;28;20304;-77
2023/02/13 00:58:12;;;;;;;1.60;1.50;;;;;;;;;;6189079;28;20292;-76
2023/02/13 01:01:17;;;;;;;3.13;1.50;;;;;;;;;;6204128;28;20490;-77
2023/02/13 01:04:22;;;;;;;1.60;1.37;;;;;;;;;;6187463;28;20305;-78
2023/02/13 01:07:28;;;;;;;1.40;1.20;;;;;;;;;;6189788;28;20290;-77
2023/02/13 01:10:34;;;;;;;1.30;1.20;;;;;;;;;;6197918;28;20387;-79
2023/02/13 01:13:40;;;;;;;1.30;1.30;;;;;;;;;;6190765;28;20301;-78
2023/02/13 01:16:46;;;;;;;3.40;1.37;;;;;;;;;;6186854;28;20298;-77
2023/02/13 01:19:51;;;;;;;3.63;1.30;;;;;;;;;;6187192;28;20294;-78
2023/02/13 01:22:57;;;;;;;1.20;1.20;;;;;;;;;;6187291;28;20294;-77
2023/02/13 01:26:04;;;;;;;1.80;1.20;;;;;;;;;;6188971;28;20286;-78
2023/02/13 01:29:13;;;;;;;1.70;1.40;;;;;;;;;;6171011;28;20306;-78
2023/02/13 01:32:18;;;;;;;1.37;1.37;;;;;;;;;;6187788;28;20296;-77
2023/02/13 01:35:23;;;;;;;1.27;1.10;;;;;;;;;;6186790;28;20481;-77
2023/02/13 01:38:28;;;;;;;1.47;1.30;;;;;;;;;;6186643;28;20301;-77
2023/02/13 01:41:34;;;;;;;1.57;1.57;;;;;;;;;;6185721;28;20316;-78
2023/02/13 01:44:52;;;;;;;4.53;1.43;;;;;;;;;;6188319;28;20296;-77
2023/02/13 01:47:59;;;;;;;2.43;1.30;;;;;;;;;;6188017;28;20298;-77
2023/02/13 01:51:09;;;;;;;1.47;1.37;;;;;;;;;;6171479;28;20302;-77
2023/02/13 01:54:15;;;;;;;1.50;1.20;;;;;;;;;;6202436;28;20293;-78
2023/02/13 01:57:23;;;;;;;1.67;1.43;;;;;;;;;;6186895;28;20298;-77
2023/02/13 02:00:30;;;;;;;1.30;1.23;;;;;;;;;;6185661;28;20297;-78
2023/02/13 02:03:37;;;;;;;1.80;1.20;;;;;;;;;;6228639;23;20230;-78
2023/02/13 02:06:49;;;;;;;1.33;1.27;;;;;;;;;;6226442;28;20304;-77
2023/02/13 02:10:05;;;;;;;1.47;1.27;;;;;;;;;;6225847;28;20550;-78
2023/02/13 02:13:12;;;;;;;1.20;1.20;;;;;;;;;;6209721;28;20402;-77
2023/02/13 02:16:19;;;;;;;1.20;1.10;;;;;;;;;;6226703;28;20296;-77
2023/02/13 02:19:33;;;;;;;1.40;1.30;;;;;;;;;;6209800;28;20470;-77
2023/02/13 02:23:03;;;;;;;1.10;1.10;;;;;;;;;;6225814;28;20299;-77
2023/02/13 02:26:41;;;;;;;1.27;1.27;;;;;;;;;;6209759;28;20392;-77
2023/02/13 02:30:24;;;;;;;4.67;1.20;;;;;;;;;;6208202;28;20296;-78
2023/02/13 02:33:37;;;;;;;1.63;1.10;;;;;;;;;;6180401;28;20297;-78
2023/02/13 02:36:59;;;;;;;3.37;1.40;;;;;;;;;;6209503;28;20296;-78
2023/02/13 02:40:18;;;;;;;1.33;1.20;;;;;;;;;;6225134;28;20301;-77
2023/02/13 02:43:32;;;;;;;1.30;1.20;;;;;;;;;;6225374;28;20504;-77
2023/02/13 02:50:32;;;;;;;1.00;1.00;;;;;;;;;;6224660;28;20312;-78
2023/02/13 02:53:41;;;;;;;1.17;1.17;;;;;;;;;;6208463;28;20296;-77
2023/02/13 02:56:49;;;;;;;1.23;1.20;;;;;;;;;;6209241;28;20273;-77
2023/02/13 03:06:49;;;;;;;1.10;1.10;;;;;;;;;;6210777;28;20342;-77
2023/02/13 03:13:34;;;;;;;1.10;1.10;;;;;;;;;;6205853;28;20301;-78
2023/02/13 03:23:47;;;;;;;1.20;1.10;;;;;;;;;;6190143;28;20296;-77
2023/02/13 03:26:58;;;;;;;1.40;1.30;;;;;;;;;;6190933;28;20468;-77
2023/02/13 03:30:11;;;;;;;2.63;1.23;;;;;;;;;;6190344;28;20302;-76
2023/02/13 03:33:28;;;;;;;4.00;1.20;;;;;;;;;;6190259;28;20293;-77
2023/02/13 03:40:15;;;;;;;3.23;1.30;;;;;;;;;;6190516;28;20302;-77
2023/02/13 03:43:21;;;;;;;2.40;1.50;;;;;;;;;;6189872;28;20292;-78
2023/02/13 03:46:29;;;;;;;1.97;1.30;;;;;;;;;;6190962;28;20347;-76
2023/02/13 03:53:03;;;;;;;1.33;1.20;;;;;;;;;;6190213;28;20300;-77
2023/02/13 03:59:36;;;;;;;1.70;1.30;;;;;;;;;;6189359;28;20336;-77
2023/02/13 04:02:52;;;;;;;1.20;1.20;;;;;;;;;;6210385;28;20618;-76
2023/02/13 04:06:01;;;;;;;1.20;1.20;;;;;;;;;;6202308;28;20493;-77
2023/02/13 04:09:07;;;;;;;1.07;1.07;;;;;;;;;;6213611;28;20289;-77
2023/02/13 04:12:18;;;;;;;3.70;1.60;;;;;;;;;;6213976;28;20289;-78
2023/02/13 04:15:28;;;;;;;1.23;1.13;;;;;;;;;;6213820;28;20302;-78
2023/02/13 04:18:34;;;;;;;2.73;1.20;;;;;;;;;;6213477;28;20288;-78
2023/02/13 04:21:40;;;;;;;4.33;1.30;;;;;;;;;;6212943;28;20305;-77
2023/02/13 04:24:46;;;;;;;1.83;1.20;;;;;;;;;;6213305;28;20296;-77
2023/02/13 04:27:53;;;;;;;2.53;1.33;;;;;;;;;;6214218;28;20292;-77
2023/02/13 04:30:59;;;;;;;1.33;1.10;;;;;;;;;;6213557;28;20389;-77
2023/02/13 04:34:05;;;;;;;1.30;1.30;;;;;;;;;;6213604;28;20328;-77
2023/02/13 04:37:10;;;;;;;1.10;1.00;;;;;;;;;;6213770;28;20305;-77
2023/02/13 04:40:15;;;;;;;1.83;1.10;;;;;;;;;;6227702;28;20297;-77
2023/02/13 04:43:22;;;;;;;1.20;1.20;;;;;;;;;;6213585;28;20302;-77
2023/02/13 04:46:28;;;;;;;3.47;1.10;;;;;;;;;;6213072;28;20342;-77
2023/02/13 04:49:33;;;;;;;1.87;1.33;;;;;;;;;;6213000;28;20604;-77
2023/02/13 04:52:38;;;;;;;3.30;1.40;;;;;;;;;;6228262;28;20632;-77
2023/02/13 04:55:44;;;;;;;1.40;1.30;;;;;;;;;;6212839;28;20301;-77
2023/02/13 04:58:50;;;;;;;1.07;1.07;;;;;;;;;;6213913;28;20304;-76
2023/02/13 05:01:58;;;;;;;1.80;1.03;;;;;;;;;;6215247;28;20292;-77
2023/02/13 05:05:02;;;;;;;2.93;1.53;;;;;;;;;;6230119;28;20319;-76
2023/02/13 05:08:09;;;;;;;2.47;1.57;;;;;;;;;;6230609;28;20332;-77
2023/02/13 05:11:14;;;;;;;1.20;1.20;;;;;;;;;;6213453;28;20296;-77
2023/02/13 05:14:21;;;;;;;2.53;1.33;;;;;;;;;;6214989;28;20289;-77
2023/02/13 05:17:26;;;;;;;1.40;1.30;;;;;;;;;;6228357;28;20304;-77
2023/02/13 05:20:32;;;;;;;3.30;1.30;;;;;;;;;;6211992;28;20293;-77
2023/02/13 05:23:36;;;;;;;2.77;1.10;;;;;;;;;;6211193;28;20273;-78
2023/02/13 05:26:41;;;;;;;1.20;1.10;;;;;;;;;;6212758;28;20572;-78
2023/02/13 05:29:48;;;;;;;2.60;0.97;;;;;;;;;;6226942;28;20319;-77
2023/02/13 05:32:53;;;;;;;1.80;1.13;;;;;;;;;;6212251;28;20312;-78
2023/02/13 05:35:59;;;;;;;3.50;1.50;;;;;;;;;;6226094;28;20309;-77
2023/02/13 05:39:05;;;;;;;1.90;1.50;;;;;;;;;;6211545;28;20296;-77
2023/02/13 05:42:11;;;;;;;4.30;1.20;;;;;;;;;;6227378;28;20289;-77
2023/02/13 05:45:17;;;;;;;2.40;1.17;;;;;;;;;;6225138;28;20295;-77
2023/02/13 05:48:22;;;;;;;1.13;1.10;;;;;;;;;;6212170;28;20300;-78
2023/02/13 05:51:28;;;;;;;1.70;1.17;;;;;;;;;;6211842;28;20319;-76
2023/02/13 05:54:33;;;;;;;2.13;1.50;;;;;;;;;;6211622;28;20288;-76
2023/02/13 05:57:38;;;;;;;2.27;1.20;;;;;;;;;;6212466;28;20313;-77
2023/02/13 06:00:45;;;;;;;2.00;1.30;;;;;;;;;;6211487;28;20294;-78
2023/02/13 06:03:50;;;;;;;1.00;1.00;;;;;;;;;;6211242;28;20304;-77
2023/02/13 06:06:55;;;;;;;2.17;1.43;;;;;;;;;;6226996;28;20474;-78
2023/02/13 06:10:00;;;;;;;5.03;1.50;;;;;;;;;;6211851;28;20620;-79
2023/02/13 06:13:06;;;;;;;6.23;1.50;;;;;;;;;;6211979;28;20385;-78
2023/02/13 06:16:14;;;;;;;4.47;1.17;;;;;;;;;;6209717;28;20303;-79
2023/02/13 06:19:19;;;;;;;2.03;1.30;;;;;;;;;;6211064;28;20472;-79
2023/02/13 06:22:25;;;;;;;4.53;1.47;;;;;;;;;;6211774;28;20324;-78
2023/02/13 06:25:30;;;;;;;1.47;1.47;;;;;;;;;;6210739;28;20615;-78
2023/02/13 06:28:36;;;;;;;2.20;1.43;;;;;;;;;;6210812;28;20315;-78
2023/02/13 06:31:43;;;;;;;3.13;1.33;;;;;;;;;;6210940;28;20320;-78
2023/02/13 06:34:49;;;;;;;4.73;1.30;;;;;;;;;;6211032;28;20304;-78
2023/02/13 06:37:54;;;;;;;2.67;1.30;;;;;;;;;;6211341;28;20480;-77
2023/02/13 06:41:01;;;;;;;1.63;1.40;;;;;;;;;;6210831;28;20296;-76
2023/02/13 06:44:07;;;;;;;5.20;1.30;;;;;;;;;;6210314;28;20393;-77
2023/02/13 06:47:18;;;;;;;1.53;1.43;;;;;;;;;;6211283;28;20313;-76
2023/02/13 06:50:24;;;;;;;1.67;1.50;;;;;;;;;;6210140;28;20308;-77
2023/02/13 06:53:29;;;;;;;1.60;1.30;;;;;;;;;;6226082;28;20305;-77
2023/02/13 06:56:34;;;;;;;2.40;1.43;;;;;;;;;;6209219;28;20300;-77
2023/02/13 06:59:39;;;;;;;1.47;1.43;;;;;;;;;;6210305;28;20306;-77
2023/02/13 07:02:47;;;;;;;1.30;1.30;;;;;;;;;;6210854;28;20308;-78
2023/02/13 07:05:52;;;;;;;1.50;1.40;;;;;;;;;;6225298;28;20292;-78
2023/02/13 07:08:57;;;;;;;1.53;1.40;;;;;;;;;;6225317;28;20304;-78
2023/02/13 07:12:04;;;;;;;6.80;1.80;;;;;;;;;;6210860;28;20303;-77
2023/02/13 07:15:10;;;;;;;2.13;1.67;;;;;;;;;;6210376;28;20553;-77
2023/02/13 07:18:16;;;;;;;3.33;1.40;;;;;;;;;;6210018;28;20304;-78
2023/02/13 07:21:22;;;;;;;2.60;1.50;;;;;;;;;;6208948;28;20308;-78
2023/02/13 07:24:27;;;;;;;2.53;1.47;;;;;;;;;;6209999;28;20297;-77
2023/02/13 07:27:32;;;;;;;1.60;1.23;;;;;;;;;;6209524;28;20292;-75
2023/02/13 07:30:39;;;;;;;2.83;1.50;;;;;;;;;;6209852;28;20439;-76
2023/02/13 07:33:48;;;;;;;2.03;1.70;;;;;;;;;;6210069;28;20295;-75
2023/02/13 07:36:53;;;;;;;3.83;1.20;;;;;;;;;;6223539;28;20293;-76
2023/02/13 07:39:58;;;;;;;1.50;1.40;;;;;;;;;;6209801;28;20299;-77
2023/02/13 07:43:03;;;;;;;2.67;1.33;;;;;;;;;;6210771;28;20296;-77
2023/02/13 07:46:11;;;;;;;2.70;1.60;;;;;;;;;;6210595;28;20300;-77
2023/02/13 07:49:17;;;;;;;3.67;1.20;;;;;;;;;;6210301;28;20290;-78
2023/02/13 07:52:23;;;;;;;1.60;1.50;;;;;;;;;;6210425;28;20303;-78
2023/02/13 07:55:28;;;;;;;3.93;1.50;;;;;;;;;;6210291;28;20589;-77
2023/02/13 07:58:33;;;;;;;1.50;1.40;;;;;;;;;;6212557;28;20288;-78
2023/02/13 08:01:38;;;;;;;1.30;1.30;;;;;;;;;;6214265;28;20289;-79
2023/02/13 08:04:46;;;;;;;4.77;1.30;;;;;;;;;;6214071;28;20336;-78
2023/02/13 08:07:53;;;;;;;1.50;1.40;;;;;;;;;;6214699;28;20299;-79
2023/02/13 08:14:26;;;;;;;2.57;1.30;;;;;;;;;;6213765;28;20296;-79
2023/02/13 08:17:32;;;;;;;3.83;1.37;;;;;;;;;;6213479;28;20321;-78
2023/02/13 08:20:38;;;;;;;2.30;1.20;;;;;;;;;;6212481;28;20295;-78
2023/02/13 08:23:43;;;;;;;1.93;1.70;;;;;;;;;;6213103;28;20273;-79
2023/02/13 08:26:48;;;;;;;4.27;1.73;;;;;;;;;;6214077;28;20273;-78
2023/02/13 08:29:53;;;;;;;3.93;1.60;;;;;;;;;;6213568;28;20316;-78
2023/02/13 08:32:59;;;;;;;2.87;1.80;;;;;;;;;;6214372;28;20413;-78
2023/02/13 08:36:06;;;;;;;6.23;1.40;;;;;;;;;;6213383;28;20392;-79
2023/02/13 08:39:11;;;;;;;1.93;1.83;;;;;;;;;;6213274;28;20296;-78
2023/02/13 08:42:17;;;;;;;1.87;1.40;;;;;;;;;;6213834;28;20300;-77
2023/02/13 08:45:22;;;;;;;1.40;1.30;;;;;;;;;;6213310;28;20295;-78
2023/02/13 08:48:27;;;;;;;2.50;1.77;;;;;;;;;;6213304;28;20292;-77
2023/02/13 08:51:33;;;;;;;0.97;0.97;;;;;;;;;;6212751;28;20298;-78
2023/02/13 08:54:38;;;;;;;1.50;1.40;;;;;;;;;;6212854;28;20297;-78
2023/02/13 08:57:43;;;;;;;1.40;1.40;;;;;;;;;;6213556;28;20304;-77
2023/02/13 09:00:48;;;;;;;3.13;1.63;;;;;;;;;;6213241;28;20307;-78
2023/02/13 09:03:54;;;;;;;1.20;1.20;;;;;;;;;;6212548;28;20464;-78
2023/02/13 09:07:01;;;;;;;2.50;1.53;;;;;;;;;;6213299;28;20292;-77
2023/02/13 09:10:07;;;;;;;1.23;1.13;;;;;;;;;;6212697;28;20304;-78
2023/02/13 09:13:12;;;;;;;3.10;1.30;;;;;;;;;;6213239;28;20297;-77
2023/02/13 09:16:17;;;;;;;1.97;1.20;;;;;;;;;;6212487;28;20299;-78
2023/02/13 09:19:23;;;;;;;2.53;1.30;;;;;;;;;;6212792;28;20313;-77
2023/02/13 09:22:30;;;;;;;2.10;1.33;;;;;;;;;;6212659;28;20296;-77
2023/02/13 09:25:35;;;;;;;1.30;1.30;;;;;;;;;;6212028;28;20304;-78
2023/02/13 09:28:40;;;;;;;1.70;1.60;;;;;;;;;;6212403;28;20308;-78
2023/02/13 09:31:45;;;;;;;2.70;2.50;;;;;;;;;;6212699;28;20304;-78
2023/02/13 09:34:51;;;;;;;2.47;2.23;;;;;;;;;;6212481;28;20298;-78
2023/02/13 09:38:00;;;;;;;1.87;1.60;;;;;;;;;;6213612;28;20445;-78
2023/02/13 09:41:08;;;;;;;3.90;1.20;;;;;;;;;;6210820;28;20297;-78
2023/02/13 09:44:32;;;;;;;1.70;1.53;;;;;;;;;;6212133;28;20473;-78
2023/02/13 09:47:40;;;;;;;2.73;1.60;;;;;;;;;;6211580;28;20291;-78
2023/02/13 09:50:45;;;;;;;3.03;1.40;;;;;;;;;;6211783;28;20332;-78
2023/02/13 09:53:55;;;;;;;1.40;1.30;;;;;;;;;;6226668;28;20267;-77
2023/02/13 09:57:04;;;;;;;3.27;1.40;;;;;;;;;;6212245;28;20297;-79
2023/02/13 10:00:15;;;;;;;1.53;1.30;;;;;;;;;;6213557;28;20295;-77
2023/02/13 10:03:27;;;;;;;1.33;1.33;;;;;;;;;;6212169;28;20292;-77
2023/02/13 10:06:35;;;;;;;1.47;1.47;;;;;;;;;;6211295;28;20476;-75
2023/02/13 10:09:51;;;;;;;1.67;1.57;;;;;;;;;;6226438;28;20308;-78
2023/02/13 10:13:15;;;;;;;1.43;1.43;;;;;;;;;;6212020;28;20305;-81
2023/02/13 10:16:22;;;;;;;1.47;1.40;;;;;;;;;;6211391;28;20632;-78
2023/02/13 10:19:36;;;;;;;1.40;1.40;;;;;;;;;;6210584;28;20482;-78
2023/02/13 10:22:47;;;;;;;2.73;1.50;;;;;;;;;;6211977;28;20295;-78
2023/02/13 10:25:57;;;;;;;1.23;1.23;;;;;;;;;;6211448;28;20303;-78
2023/02/13 10:32:35;;;;;;;1.80;1.33;;;;;;;;;;6211526;28;20292;-78
2023/02/13 10:35:40;;;;;;;1.90;1.80;;;;;;;;;;6210159;28;20332;-77
2023/02/13 10:38:50;;;;;;;1.13;1.13;;;;;;;;;;6210930;28;20287;-78
2023/02/13 10:42:09;;;;;;;1.20;1.20;;;;;;;;;;6212338;28;20295;-76
2023/02/13 10:45:46;;;;;;;1.30;1.20;;;;;;;;;;6210452;28;20296;-77
2023/02/13 10:49:14;;;;;;;1.37;1.37;;;;;;;;;;6210568;28;20308;-78
2023/02/13 10:52:30;;;;;;;1.30;1.30;;;;;;;;;;6209821;28;20316;-77
2023/02/13 10:56:01;;;;;;;1.20;1.20;;;;;;;;;;6210800;28;20298;-78
2023/02/13 10:59:19;;;;;;;2.53;1.27;;;;;;;;;;6209635;28;20318;-79
2023/02/13 11:02:26;;;;;;;1.23;1.23;;;;;;;;;;6210621;28;20304;-78
2023/02/13 11:05:33;;;;;;;2.67;1.17;;;;;;;;;;6210855;28;20539;-78
2023/02/13 11:08:42;;;;;;;1.20;1.20;;;;;;;;;;6209346;28;20281;-78
2023/02/13 11:11:47;;;;;;;2.50;1.50;;;;;;;;;;6210724;28;20268;-79
2023/02/13 11:15:20;;;;;;;1.27;1.20;;;;;;;;;;6207208;28;20302;-82
2023/02/13 11:18:33;;;;;;;1.23;1.23;;;;;;;;;;6198843;28;20296;-79
2023/02/13 11:21:39;;;;;;;3.60;1.47;;;;;;;;;;6210098;28;20304;-77
2023/02/13 11:24:52;;;;;;;1.20;1.20;;;;;;;;;;6225209;28;20300;-78
2023/02/13 11:28:09;;;;;;;1.20;1.13;;;;;;;;;;6210527;28;20344;-78
2023/02/13 11:31:24;;;;;;;1.60;1.50;;;;;;;;;;6224742;28;20304;-78
2023/02/13 11:34:31;;;;;;;1.30;1.30;;;;;;;;;;6214511;28;20295;-78
2023/02/13 11:37:37;;;;;;;2.73;1.33;;;;;;;;;;6215441;28;20296;-78
2023/02/13 11:40:44;;;;;;;1.90;1.30;;;;;;;;;;6214543;28;20303;-77
2023/02/13 11:43:53;;;;;;;1.17;1.17;;;;;;;;;;6214467;28;20300;-77
2023/02/13 11:47:01;;;;;;;2.10;1.17;;;;;;;;;;6229702;28;20429;-78
2023/02/13 11:50:20;;;;;;;1.03;1.03;;;;;;;;;;6214548;28;20295;-77
2023/02/13 11:53:28;;;;;;;1.47;1.23;;;;;;;;;;6214885;28;20293;-78
2023/02/13 11:56:48;;;;;;;1.80;1.50;;;;;;;;;;6213917;28;20647;-78
2023/02/13 12:00:36;;;;;;;1.20;1.20;;;;;;;;;;6211840;28;20312;-77
2023/02/13 12:03:43;;;;;;;3.43;1.20;;;;;;;;;;6213813;28;20308;-78
2023/02/13 12:07:02;;;;;;;1.00;1.00;;;;;;;;;;6229602;28;20299;-79
2023/02/13 12:10:17;;;;;;;1.10;1.10;;;;;;;;;;6214398;28;20306;-78
2023/02/13 12:13:27;;;;;;;1.60;1.20;;;;;;;;;;6214259;28;20304;-79
2023/02/13 12:16:36;;;;;;;1.20;1.17;;;;;;;;;;6213769;28;20601;-79
2023/02/13 12:19:44;;;;;;;1.67;1.57;;;;;;;;;;6213792;28;20312;-78
2023/02/13 12:22:58;;;;;;;1.30;1.00;;;;;;;;;;6214774;28;20380;-77
2023/02/13 12:26:11;;;;;;;1.30;1.30;;;;;;;;;;6213765;28;20400;-77
2023/02/13 12:29:31;;;;;;;2.43;1.33;;;;;;;;;;6214321;28;20553;-79
2023/02/13 12:32:46;;;;;;;1.60;1.60;;;;;;;;;;6213240;28;20568;-79
2023/02/13 12:35:58;;;;;;;1.20;1.10;;;;;;;;;;6213375;28;20305;-78
2023/02/13 12:39:17;;;;;;;1.50;1.10;;;;;;;;;;6213718;28;20609;-78
2023/02/13 12:42:34;;;;;;;0.90;0.90;;;;;;;;;;6213385;28;20472;-78
2023/02/13 12:45:42;;;;;;;1.00;1.00;;;;;;;;;;6213494;28;20296;-77
2023/02/13 12:48:56;;;;;;;1.47;1.00;;;;;;;;;;6213307;28;20299;-78
2023/02/13 12:52:15;;;;;;;1.57;1.20;;;;;;;;;;6213947;28;20296;-79
2023/02/13 12:55:33;;;;;;;1.30;1.23;;;;;;;;;;6212953;28;20576;-79
2023/02/13 12:59:11;;;;;;;1.00;1.00;;;;;;;;;;6211902;28;20297;-79
2023/02/13 13:02:52;;;;;;;1.37;1.37;;;;;;;;;;6179374;28;20320;-79
2023/02/13 13:06:14;;;;;;;1.40;1.40;;;;;;;;;;6212528;28;20301;-79
2023/02/13 13:09:55;;;;;;;1.40;1.40;;;;;;;;;;6213062;28;20289;-79
2023/02/13 13:13:07;;;;;;;1.00;1.00;;;;;;;;;;6167873;28;20297;-79
2023/02/13 13:16:17;;;;;;;1.20;1.20;;;;;;;;;;6212188;28;20300;-79
2023/02/13 13:19:29;;;;;;;1.20;1.20;;;;;;;;;;6212674;28;20309;-79
2023/02/13 13:22:40;;;;;;;1.37;1.20;;;;;;;;;;6213133;28;20301;-78
2023/02/13 13:25:53;;;;;;;0.80;0.80;;;;;;;;;;6212522;28;20295;-78
2023/02/13 13:28:59;;;;;;;2.40;1.20;;;;;;;;;;6210904;28;20557;-79
2023/02/13 13:32:08;;;;;;;1.17;1.17;;;;;;;;;;6213083;28;20304;-79
2023/02/13 13:35:15;;;;;;;1.07;1.07;;;;;;;;;;6212307;28;20610;-77
2023/02/13 13:38:26;;;;;;;1.90;1.20;;;;;;;;;;6212760;28;20304;-79
2023/02/13 13:41:38;;;;;;;1.10;1.10;;;;;;;;;;6210707;28;20314;-78
2023/02/13 13:44:51;;;;;;;1.10;1.10;;;;;;;;;;6210794;28;20487;-78
2023/02/13 13:48:14;;;;;;;1.00;1.00;;;;;;;;;;6210762;28;20308;-78
2023/02/13 13:51:20;;;;;;;1.10;1.10;;;;;;;;;;6211973;28;20480;-78
2023/02/13 13:54:36;;;;;;;1.20;1.20;;;;;;;;;;6210583;28;20268;-77
2023/02/13 13:58:03;;;;;;;2.93;1.20;;;;;;;;;;6212643;28;20462;-78
2023/02/13 14:01:28;;;;;;;1.17;1.10;;;;;;;;;;6209278;28;20312;-78
2023/02/13 14:04:40;;;;;;;2.87;1.07;;;;;;;;;;6211189;28;20289;-78
2023/02/13 14:07:46;;;;;;;1.10;1.10;;;;;;;;;;6211651;28;20296;-79
2023/02/13 14:11:24;;;;;;;2.00;1.10;;;;;;;;;;6211262;28;20300;-78
2023/02/13 14:14:54;;;;;;;1.40;1.30;;;;;;;;;;6210111;28;20292;-79
2023/02/13 14:18:00;;;;;;;2.97;1.10;;;;;;;;;;6211200;28;20297;-78
2023/02/13 14:21:06;;;;;;;1.70;1.27;;;;;;;;;;6211379;28;20357;-78
2023/02/13 14:24:19;;;;;;;3.13;1.10;;;;;;;;;;6209761;28;20296;-78
2023/02/13 14:27:26;;;;;;;1.10;1.00;;;;;;;;;;6211427;28;20288;-77
2023/02/13 14:30:34;;;;;;;1.03;1.03;;;;;;;;;;6211104;28;20333;-77
2023/02/13 14:33:40;;;;;;;1.37;1.20;;;;;;;;;;6211015;28;20469;-78
2023/02/13 14:36:47;;;;;;;2.20;2.00;;;;;;;;;;6211613;28;20289;-78
2023/02/13 14:40:27;;;;;;;1.50;1.50;;;;;;;;;;6211207;28;20297;-78
2023/02/13 14:43:46;;;;;;;1.30;1.30;;;;;;;;;;6211160;28;20592;-78
2023/02/13 14:46:53;;;;;;;3.53;1.23;;;;;;;;;;6210376;28;20565;-78
2023/02/13 14:49:59;;;;;;;1.20;1.20;;;;;;;;;;6210422;28;20313;-77
2023/02/13 14:53:09;;;;;;;1.27;1.17;;;;;;;;;;6211538;28;20301;-78
2023/02/13 14:56:17;;;;;;;1.57;1.17;;;;;;;;;;6210654;28;20305;-78
2023/02/13 14:59:26;;;;;;;1.87;1.27;;;;;;;;;;6210944;28;20289;-78
2023/02/13 15:02:35;;;;;;;1.70;1.37;;;;;;;;;;6211073;28;20305;-77
2023/02/13 15:05:41;;;;;;;1.90;1.37;;;;;;;;;;6210607;28;20289;-79
2023/02/13 15:08:49;;;;;;;1.10;1.10;;;;;;;;;;6215851;28;20273;-78
2023/02/13 15:11:54;;;;;;;2.77;1.23;;;;;;;;;;6216567;28;20293;-78
2023/02/13 15:15:01;;;;;;;0.90;0.90;;;;;;;;;;6216325;28;20293;-79
2023/02/13 15:18:11;;;;;;;1.10;1.10;;;;;;;;;;6216209;28;20303;-79
2023/02/13 15:21:19;;;;;;;1.03;1.03;;;;;;;;;;6215553;28;20293;-78
2023/02/13 15:24:24;;;;;;;1.20;1.20;;;;;;;;;;6215618;28;20315;-78
2023/02/13 15:27:32;;;;;;;1.53;1.27;;;;;;;;;;6216242;28;20305;-78
2023/02/13 15:30:38;;;;;;;1.10;1.10;;;;;;;;;;6213765;28;20304;-78
2023/02/13 15:33:47;;;;;;;1.40;1.30;;;;;;;;;;6215072;28;20305;-78
2023/02/13 15:36:54;;;;;;;1.20;1.20;;;;;;;;;;6215618;28;20320;-78
2023/02/13 15:40:16;;;;;;;1.60;1.37;;;;;;;;;;6215126;28;20292;-78
2023/02/13 15:43:30;;;;;;;1.10;1.10;;;;;;;;;;6213940;28;20297;-78
2023/02/13 15:46:37;;;;;;;1.20;1.20;;;;;;;;;;6214357;28;20296;-78
2023/02/13 15:49:48;;;;;;;1.30;1.30;;;;;;;;;;6215395;28;20300;-78
2023/02/13 15:52:54;;;;;;;1.30;1.30;;;;;;;;;;6215744;28;20468;-78
2023/02/13 15:56:02;;;;;;;2.20;1.30;;;;;;;;;;6214120;28;20296;-78
2023/02/13 15:59:10;;;;;;;1.00;1.00;;;;;;;;;;6214431;28;20300;-78
2023/02/13 16:02:19;;;;;;;1.13;1.10;;;;;;;;;;6214555;28;20588;-79
2023/02/13 16:05:27;;;;;;;2.53;1.07;;;;;;;;;;6213405;28;20304;-78
2023/02/13 16:08:45;;;;;;;3.63;1.20;;;;;;;;;;6213627;28;20281;-78
2023/02/13 16:11:51;;;;;;;1.23;1.10;;;;;;;;;;6214573;28;20461;-79
2023/02/13 16:15:01;;;;;;;1.43;1.20;;;;;;;;;;6214163;28;20285;-78
2023/02/13 16:18:12;;;;;;;1.50;1.40;;;;;;;;;;6213219;28;20305;-78
2023/02/13 16:21:22;;;;;;;1.30;1.20;;;;;;;;;;6214159;28;20293;-78
2023/02/13 16:24:29;;;;;;;3.03;1.50;;;;;;;;;;6212624;28;20293;-78
2023/02/13 16:27:35;;;;;;;1.73;1.63;;;;;;;;;;6215000;28;20288;-79
2023/02/13 16:30:41;;;;;;;2.40;1.63;;;;;;;;;;6213660;28;20289;-79
2023/02/13 16:33:47;;;;;;;1.70;1.33;;;;;;;;;;6213887;28;20308;-78
2023/02/13 16:36:53;;;;;;;1.30;1.30;;;;;;;;;;6213809;28;20303;-79
2023/02/13 16:40:29;;;;;;;1.77;1.70;;;;;;;;;;6213660;28;20308;-78
2023/02/13 16:43:40;;;;;;;1.60;1.50;;;;;;;;;;6211353;28;20491;-76
2023/02/13 16:46:55;;;;;;;1.53;1.53;;;;;;;;;;6214111;28;20303;-79
2023/02/13 16:50:00;;;;;;;1.67;1.67;;;;;;;;;;6212292;28;20305;-79
2023/02/13 16:53:07;;;;;;;2.10;1.43;;;;;;;;;;6228950;28;20312;-77
2023/02/13 16:56:13;;;;;;;1.77;1.67;;;;;;;;;;6221080;28;20303;-78
2023/02/13 16:59:31;;;;;;;1.50;1.40;;;;;;;;;;6225758;28;20287;-77
2023/02/13 17:02:38;;;;;;;1.10;1.10;;;;;;;;;;6224571;28;20324;-77
2023/02/13 17:05:43;;;;;;;2.50;1.43;;;;;;;;;;6224946;28;20316;-78
2023/02/13 17:08:51;;;;;;;1.57;1.17;;;;;;;;;;6222605;28;20232;-77
2023/02/13 17:11:56;;;;;;;1.50;1.40;;;;;;;;;;6213916;28;20296;-77
2023/02/13 17:15:01;;;;;;;1.40;1.40;;;;;;;;;;6212794;28;20469;-77
2023/02/13 17:18:06;;;;;;;1.60;1.50;;;;;;;;;;6212894;28;20300;-79
2023/02/13 17:21:12;;;;;;;1.43;1.30;;;;;;;;;;6212740;28;20291;-78
2023/02/13 17:24:19;;;;;;;1.20;1.20;;;;;;;;;;6212120;28;20585;-78
2023/02/13 17:27:24;;;;;;;1.20;1.20;;;;;;;;;;6211611;28;20288;-78
2023/02/13 17:30:32;;;;;;;1.37;1.20;;;;;;;;;;6210870;28;20294;-78
2023/02/13 17:33:38;;;;;;;1.20;1.20;;;;;;;;;;6212624;28;20311;-78
2023/02/13 17:36:44;;;;;;;1.20;1.20;;;;;;;;;;6212171;28;20319;-79
2023/02/13 17:39:50;;;;;;;1.50;1.50;;;;;;;;;;6211363;28;20294;-77
2023/02/13 17:42:56;;;;;;;1.37;1.37;;;;;;;;;;6212248;28;20296;-77
2023/02/13 17:46:01;;;;;;;5.73;1.50;;;;;;;;;;6211960;28;20296;-77
2023/02/13 17:49:07;;;;;;;1.30;1.30;;;;;;;;;;6211447;28;20482;-78
2023/02/13 17:52:16;;;;;;;1.30;1.20;;;;;;;;;;6210867;28;20303;-78
2023/02/13 17:55:24;;;;;;;1.30;1.30;;;;;;;;;;6211661;28;20355;-77
2023/02/13 17:58:29;;;;;;;1.40;1.30;;;;;;;;;;6211793;28;20316;-79
2023/02/13 18:01:34;;;;;;;1.40;1.30;;;;;;;;;;6211342;28;20296;-78
2023/02/13 18:04:40;;;;;;;2.13;1.30;;;;;;;;;;6209532;28;20295;-77
2023/02/13 18:07:49;;;;;;;1.17;1.17;;;;;;;;;;6210736;28;20296;-76
2023/02/13 18:10:56;;;;;;;3.07;1.40;;;;;;;;;;6211395;28;20292;-78
2023/02/13 18:14:01;;;;;;;1.40;1.40;;;;;;;;;;6211382;28;20568;-78
2023/02/13 18:17:07;;;;;;;1.20;1.20;;;;;;;;;;6212293;28;20295;-77
2023/02/13 18:20:15;;;;;;;3.17;1.50;;;;;;;;;;6211565;28;20296;-79
2023/02/13 18:23:20;;;;;;;4.03;1.30;;;;;;;;;;6211518;28;20300;-78
2023/02/13 18:26:29;;;;;;;1.20;1.20;;;;;;;;;;6211141;28;20298;-75
2023/02/13 18:29:36;;;;;;;1.43;1.10;;;;;;;;;;6210188;28;20587;-79
2023/02/13 18:32:43;;;;;;;1.13;1.13;;;;;;;;;;6210919;28;20275;-79
2023/02/13 18:35:49;;;;;;;1.67;1.50;;;;;;;;;;6211131;28;20466;-80
2023/02/13 18:38:54;;;;;;;1.20;1.20;;;;;;;;;;6211482;28;20311;-80
2023/02/13 18:42:02;;;;;;;1.20;0.90;;;;;;;;;;6211119;28;20300;-80
2023/02/13 18:45:12;;;;;;;1.00;1.00;;;;;;;;;;6210735;28;20297;-80
2023/02/13 18:48:17;;;;;;;1.10;1.10;;;;;;;;;;6211280;28;20291;-80
2023/02/13 18:51:23;;;;;;;1.33;1.23;;;;;;;;;;6211102;28;20378;-78
2023/02/13 18:54:28;;;;;;;2.37;1.20;;;;;;;;;;6210334;28;20299;-77
2023/02/13 18:57:35;;;;;;;1.20;1.20;;;;;;;;;;6225752;28;20290;-78
2023/02/13 19:00:41;;;;;;;1.93;1.20;;;;;;;;;;6209386;28;20303;-77
2023/02/13 19:03:48;;;;;;;1.40;1.30;;;;;;;;;;6210780;28;20299;-77
2023/02/13 19:06:53;;;;;;;1.30;1.20;;;;;;;;;;6211341;28;20687;-77
2023/02/13 19:09:58;;;;;;;1.10;1.10;;;;;;;;;;6211368;28;20303;-77
2023/02/13 19:13:05;;;;;;;1.37;1.27;;;;;;;;;;6211635;28;20303;-78
2023/02/13 19:16:15;;;;;;;1.30;1.30;;;;;;;;;;6210668;28;20303;-78
2023/02/13 19:19:20;;;;;;;1.43;1.33;;;;;;;;;;6210462;28;20300;-78
2023/02/13 19:22:25;;;;;;;1.33;1.23;;;;;;;;;;6211141;28;20300;-77
2023/02/13 19:25:31;;;;;;;1.30;1.30;;;;;;;;;;6210350;28;20291;-78
2023/02/13 19:28:37;;;;;;;1.23;1.23;;;;;;;;;;6209349;28;20301;-78
2023/02/13 19:31:42;;;;;;;1.10;1.10;;;;;;;;;;6211491;28;20292;-78
2023/02/13 19:34:48;;;;;;;2.63;1.30;;;;;;;;;;6210662;28;20403;-78